createdAt,value
2022-11-17T00:01:27.364Z,6.48
2022-11-17T00:04:00.511Z,6.49
2022-11-17T00:20:17.356Z,6.43
2022-11-17T00:22:50.551Z,6.42
2022-11-17T00:25:31.366Z,6.40
2022-11-17T00:28:04.739Z,6.39
2022-11-17T00:47:11.324Z,6.36
2022-11-17T00:49:51.344Z,6.37
2022-11-17T00:52:24.605Z,6.39
2022-11-17T00:54:51.260Z,6.37
2022-11-17T00:57:41.704Z,6.41
2022-11-17T01:00:15.070Z,6.40
2022-11-17T01:13:05.323Z,6.33
2022-11-17T01:15:45.344Z,6.32
2022-11-17T01:18:18.550Z,6.32
2022-11-17T01:20:45.255Z,6.31
2022-11-17T01:23:25.468Z,6.26
2022-11-17T01:26:03.134Z,6.25
2022-11-17T01:39:00.350Z,6.18
2022-11-17T01:41:40.329Z,6.13
2022-11-17T01:44:53.535Z,6.11
2022-11-17T01:47:45.433Z,6.09
2022-11-17T01:50:32.145Z,6.09
2022-11-17T02:06:55.408Z,6.03
2022-11-17T02:09:29.602Z,6.04
2022-11-17T02:12:05.338Z,6.04
2022-11-17T02:14:39.872Z,6.02
2022-11-17T02:17:15.386Z,6.02
2022-11-17T02:20:03.450Z,6.02
2022-11-17T02:33:10.348Z,5.96
2022-11-17T02:35:59.324Z,5.94
2022-11-17T02:38:42.004Z,5.93
2022-11-17T02:41:31.354Z,5.93
2022-11-17T02:44:12.256Z,5.89
2022-11-17T03:00:37.308Z,5.84
2022-11-17T03:03:37.463Z,5.85
2022-11-17T03:06:32.309Z,5.84
2022-11-17T03:09:15.541Z,5.84
2022-11-17T03:12:05.313Z,5.80
2022-11-17T03:14:52.220Z,5.85
2022-11-17T03:25:07.340Z,5.84
2022-11-17T03:27:47.604Z,5.81
2022-11-17T03:30:27.329Z,5.84
2022-11-17T03:33:08.910Z,5.84
2022-11-17T03:35:54.308Z,5.82
2022-11-17T03:38:36.083Z,5.81
2022-11-17T03:41:20.311Z,5.79
2022-11-17T03:51:50.272Z,5.76
2022-11-17T03:54:32.875Z,5.76
2022-11-17T03:57:16.643Z,5.75
2022-11-17T04:00:04.344Z,5.73
2022-11-17T04:02:41.995Z,5.73
2022-11-17T04:05:23.352Z,5.77
2022-11-17T04:18:43.347Z,5.75
2022-11-17T04:21:17.040Z,5.76
2022-11-17T04:23:50.283Z,5.76
2022-11-17T04:26:24.220Z,5.76
2022-11-17T04:28:57.316Z,5.75
2022-11-17T04:31:31.566Z,5.75
2022-11-17T04:34:09.333Z,5.75
2022-11-17T04:47:19.304Z,5.70
2022-11-17T04:49:54.400Z,5.70
2022-11-17T04:52:29.945Z,5.70
2022-11-17T04:55:04.306Z,5.73
2022-11-17T04:57:37.776Z,5.74
2022-11-17T05:00:14.210Z,5.70
2022-11-17T05:13:04.326Z,5.70
2022-11-17T05:15:44.286Z,5.72
2022-11-17T05:18:17.416Z,5.72
2022-11-17T05:20:44.073Z,5.71
2022-11-17T05:23:24.287Z,5.73
2022-11-17T05:25:57.457Z,5.73
2022-11-17T05:39:02.276Z,5.69
2022-11-17T05:41:43.359Z,5.67
2022-11-17T05:44:16.433Z,5.67
2022-11-17T05:46:43.165Z,5.65
2022-11-17T05:49:23.298Z,5.67
2022-11-17T05:51:56.531Z,5.68
2022-11-17T05:54:31.281Z,5.68
2022-11-17T06:07:42.296Z,5.63
2022-11-17T06:10:17.721Z,5.62
2022-11-17T06:12:51.304Z,5.62
2022-11-17T06:15:24.702Z,5.62
2022-11-17T06:18:04.349Z,5.63
2022-11-17T06:20:43.846Z,5.64
2022-11-17T06:33:43.235Z,5.62
2022-11-17T06:36:23.287Z,5.61
2022-11-17T06:38:57.009Z,5.60
2022-11-17T06:41:37.263Z,5.60
2022-11-17T06:44:10.438Z,5.59
2022-11-17T07:00:26.268Z,5.65
2022-11-17T07:03:00.244Z,5.67
2022-11-17T07:05:33.778Z,5.68
2022-11-17T07:08:09.249Z,5.68
2022-11-17T07:10:49.165Z,5.69
2022-11-17T07:13:24.244Z,5.69
2022-11-17T07:15:59.304Z,5.70
2022-11-17T07:25:59.228Z,5.71
2022-11-17T07:28:41.273Z,5.74
2022-11-17T07:31:16.443Z,5.74
2022-11-17T07:33:50.260Z,5.74
2022-11-17T07:36:23.320Z,5.74
2022-11-17T07:39:03.271Z,5.77
2022-11-17T07:52:45.255Z,5.78
2022-11-17T07:55:18.901Z,5.79
2022-11-17T07:57:52.273Z,5.79
2022-11-17T08:00:27.355Z,5.83
2022-11-17T08:03:00.272Z,5.84
2022-11-17T08:05:41.715Z,5.83
2022-11-17T08:19:23.211Z,5.88
2022-11-17T08:22:05.248Z,5.92
2022-11-17T08:24:38.496Z,5.93
2022-11-17T08:27:05.211Z,5.95
2022-11-17T08:29:45.264Z,5.96
2022-11-17T08:32:18.524Z,5.95
2022-11-17T08:34:52.273Z,5.97
2022-11-17T08:48:04.248Z,6.03
2022-11-17T08:50:37.474Z,6.04
2022-11-17T08:53:04.193Z,6.06
2022-11-17T08:55:44.312Z,6.07
2022-11-17T08:58:17.476Z,6.08
2022-11-17T09:00:51.307Z,6.11
2022-11-17T09:14:02.773Z,6.14
2022-11-17T09:16:37.160Z,6.17
2022-11-17T09:19:10.237Z,6.17
2022-11-17T09:21:43.521Z,6.18
2022-11-17T09:24:17.293Z,6.18
2022-11-17T09:40:54.208Z,6.20
2022-11-17T09:43:37.240Z,6.20
2022-11-17T09:46:17.701Z,6.21
2022-11-17T09:49:08.223Z,6.23
2022-11-17T09:51:48.017Z,6.25
2022-11-17T09:54:53.238Z,6.26
2022-11-17T10:08:12.216Z,6.31
2022-11-17T10:10:49.937Z,6.30
2022-11-17T10:16:21.111Z,6.34
2022-11-17T10:18:54.343Z,6.35
2022-11-17T10:21:27.241Z,6.36
2022-11-17T10:34:42.231Z,6.48
2022-11-17T10:37:29.726Z,6.49
2022-11-17T10:40:25.977Z,6.51
2022-11-17T10:43:22.936Z,6.53
2022-11-17T10:46:08.245Z,6.54
2022-11-17T11:00:01.210Z,6.60
2022-11-17T11:02:37.166Z,6.65
2022-11-17T11:05:21.229Z,6.66
2022-11-17T11:08:21.115Z,6.64
2022-11-17T11:11:05.228Z,6.66
2022-11-17T11:13:49.424Z,6.68
2022-11-17T11:26:48.181Z,6.71
2022-11-17T11:29:43.220Z,6.72
2022-11-17T11:32:33.428Z,6.73
2022-11-17T11:35:45.232Z,6.74
2022-11-17T11:38:49.620Z,6.74
2022-11-17T11:55:05.207Z,6.76
2022-11-17T11:57:48.240Z,6.78
2022-11-17T12:00:28.192Z,6.77
2022-11-17T12:03:15.187Z,6.79
2022-11-17T12:06:12.213Z,6.79
2022-11-17T12:09:00.548Z,6.80
2022-11-17T12:21:20.180Z,6.83
2022-11-17T12:24:21.214Z,6.84
2022-11-17T12:27:48.112Z,6.85
2022-11-17T12:30:57.213Z,6.88
2022-11-17T12:34:21.788Z,6.87
2022-11-17T12:47:25.176Z,6.91
2022-11-17T12:50:50.195Z,6.94
2022-11-17T12:53:51.745Z,6.93
2022-11-17T12:56:59.215Z,6.94
2022-11-17T13:00:03.558Z,6.94
2022-11-17T13:13:46.864Z,6.90
2022-11-17T13:16:29.185Z,6.90
2022-11-17T13:19:03.830Z,6.89
2022-11-17T13:21:40.229Z,6.88
2022-11-17T13:24:29.593Z,6.89
2022-11-17T13:27:12.220Z,6.89
2022-11-17T13:29:45.433Z,6.90
2022-11-17T13:42:38.151Z,6.86
2022-11-17T13:45:22.195Z,6.85
2022-11-17T13:47:56.657Z,6.87
2022-11-17T13:50:43.164Z,6.88
2022-11-17T13:53:24.802Z,6.86
2022-11-17T13:56:05.166Z,6.87
2022-11-17T14:09:17.238Z,6.84
2022-11-17T14:11:50.774Z,6.83
2022-11-17T14:14:33.168Z,6.83
2022-11-17T14:17:18.942Z,6.81
2022-11-17T14:19:59.173Z,6.80
2022-11-17T14:33:54.208Z,6.77
2022-11-17T14:36:31.432Z,6.77
2022-11-17T14:39:19.171Z,6.76
2022-11-17T14:41:52.423Z,6.75
2022-11-17T14:44:19.104Z,6.74
2022-11-17T14:46:59.159Z,6.72
2022-11-17T14:49:32.381Z,6.70
2022-11-17T15:02:22.126Z,6.67
2022-11-17T15:05:02.267Z,6.66
2022-11-17T15:07:35.481Z,6.65
2022-11-17T15:10:10.207Z,6.63
2022-11-17T15:12:43.440Z,6.61
2022-11-17T15:15:17.182Z,6.60
2022-11-17T15:28:30.496Z,6.56
2022-11-17T15:31:13.365Z,6.55
2022-11-17T15:33:54.149Z,6.55
2022-11-17T15:36:32.790Z,6.55
2022-11-17T15:39:13.382Z,6.50
2022-11-17T15:55:50.132Z,6.46
2022-11-17T15:58:30.168Z,6.45
2022-11-17T16:01:12.838Z,6.45
2022-11-17T16:03:53.152Z,6.44
2022-11-17T16:06:27.423Z,6.45
2022-11-17T16:09:01.173Z,6.43
2022-11-17T16:11:37.072Z,6.42
2022-11-17T16:21:09.156Z,6.40
2022-11-17T16:23:48.740Z,6.36
2022-11-17T16:26:24.139Z,6.37
2022-11-17T16:29:01.935Z,6.35
2022-11-17T16:31:43.658Z,6.33
2022-11-17T16:34:17.345Z,6.32
2022-11-17T16:49:51.619Z,6.28
2022-11-17T16:52:25.343Z,6.28
2022-11-17T16:55:05.418Z,6.25
2022-11-17T16:57:41.498Z,6.25
2022-11-17T17:00:17.116Z,6.26
2022-11-17T17:16:54.105Z,6.22
2022-11-17T17:19:34.136Z,6.22
2022-11-17T17:22:07.325Z,6.21
2022-11-17T17:24:33.984Z,6.20
2022-11-17T17:27:14.160Z,6.21
2022-11-17T17:29:47.443Z,6.22
2022-11-17T17:42:38.101Z,6.20
2022-11-17T17:45:18.128Z,6.19
2022-11-17T17:47:51.315Z,6.19
2022-11-17T17:50:25.144Z,6.19
2022-11-17T17:52:58.332Z,6.19
2022-11-17T17:55:32.129Z,6.19
2022-11-17T18:08:45.121Z,6.18
2022-11-17T18:11:21.614Z,6.18
2022-11-17T18:13:57.192Z,6.18
2022-11-17T18:16:32.828Z,6.15
2022-11-17T18:19:09.139Z,6.16
2022-11-17T18:21:42.687Z,6.15
2022-11-17T18:34:48.092Z,6.15
2022-11-17T18:37:28.309Z,6.15
2022-11-17T18:40:01.389Z,6.16
2022-11-17T18:42:28.129Z,6.15
2022-11-17T18:45:08.144Z,6.12
2022-11-17T18:47:41.301Z,6.15
2022-11-17T18:50:17.105Z,6.15
2022-11-17T19:03:27.117Z,6.12
2022-11-17T19:06:04.864Z,6.11
2022-11-17T19:08:45.187Z,6.11
2022-11-17T19:11:21.279Z,6.11
2022-11-17T19:13:55.108Z,6.09
2022-11-17T19:16:29.575Z,6.09
2022-11-17T19:29:20.232Z,6.12
2022-11-17T19:32:00.119Z,6.11
2022-11-17T19:34:33.297Z,6.12
2022-11-17T19:36:59.968Z,6.13
2022-11-17T19:39:41.407Z,6.10
2022-11-17T19:56:18.063Z,6.12
2022-11-17T19:58:59.096Z,6.13
2022-11-17T20:01:33.020Z,6.15
2022-11-17T20:04:07.118Z,6.11
2022-11-17T20:06:40.336Z,6.14
2022-11-17T20:09:15.684Z,6.14
2022-11-17T20:22:28.083Z,6.13
2022-11-17T20:25:09.104Z,6.14
2022-11-17T20:27:49.091Z,6.15
2022-11-17T20:30:22.394Z,6.15
2022-11-17T20:32:49.064Z,6.16
2022-11-17T20:35:29.073Z,6.16
2022-11-17T20:48:41.190Z,6.17
2022-11-17T20:51:16.623Z,6.16
2022-11-17T20:53:50.097Z,6.16
2022-11-17T20:56:23.296Z,6.18
2022-11-17T20:58:49.983Z,6.16
2022-11-17T21:01:30.122Z,6.16
2022-11-17T21:15:17.100Z,6.14
2022-11-17T21:17:50.552Z,6.15
2022-11-17T21:20:24.102Z,6.16
2022-11-17T21:22:57.308Z,6.15
2022-11-17T21:25:31.067Z,6.14
2022-11-17T21:28:04.712Z,6.15
2022-11-17T21:30:40.080Z,6.14
2022-11-17T21:43:54.136Z,6.09
2022-11-17T21:46:32.746Z,6.11
2022-11-17T21:49:20.077Z,6.10
2022-11-17T21:51:53.265Z,6.11
2022-11-17T21:54:27.165Z,6.09
2022-11-17T22:11:09.036Z,6.08
2022-11-17T22:13:49.149Z,6.05
2022-11-17T22:16:23.725Z,6.02
2022-11-17T22:18:57.061Z,6.02
2022-11-17T22:21:31.875Z,6.00
2022-11-17T22:24:05.076Z,5.99
2022-11-17T22:26:47.750Z,5.98
2022-11-17T22:36:26.064Z,5.89
2022-11-17T22:38:59.282Z,5.88
2022-11-17T22:41:25.948Z,5.87
2022-11-17T22:44:08.588Z,5.85
2022-11-17T22:46:42.473Z,5.85
2022-11-17T22:49:16.323Z,5.84
2022-11-17T22:51:49.299Z,5.81
2022-11-17T23:04:39.019Z,5.85
2022-11-17T23:07:25.141Z,5.86
2022-11-17T23:09:58.226Z,5.87
2022-11-17T23:12:32.077Z,5.88
2022-11-17T23:15:07.545Z,5.91
2022-11-17T23:31:24.064Z,5.91
2022-11-17T23:33:57.380Z,5.92
2022-11-17T23:36:31.150Z,5.89
2022-11-17T23:39:04.387Z,5.87
2022-11-17T23:41:38.036Z,5.86
2022-11-17T23:44:11.286Z,5.87
2022-11-17T23:46:46.886Z,5.87
2022-11-17T23:56:32.010Z,5.89
2022-11-17T23:59:12.049Z,5.91
